createdAt,value
2022-11-18T00:01:56.371Z,10.78
2022-11-18T00:05:03.967Z,9.90
2022-11-18T00:08:09.595Z,9.18
2022-11-18T00:11:23.225Z,10.10
2022-11-18T00:14:35.803Z,9.95
2022-11-18T00:17:42.831Z,10.68
2022-11-18T00:20:50.466Z,10.05
2022-11-18T00:23:58.225Z,9.93
2022-11-18T00:27:04.547Z,9.40
2022-11-18T00:30:10.014Z,9.45
2022-11-18T00:33:17.692Z,9.43
2022-11-18T00:36:25.594Z,10.38
2022-11-18T00:39:33.601Z,11.03
2022-11-18T00:42:58.556Z,10.88
2022-11-18T00:46:05.392Z,10.85
2022-11-18T00:49:12.727Z,8.98
2022-11-18T00:52:18.848Z,10.43
2022-11-18T00:55:25.579Z,10.10
2022-11-18T00:58:30.613Z,10.03
2022-11-18T01:01:36.936Z,11.40
2022-11-18T01:04:44.056Z,10.23
2022-11-18T01:07:49.071Z,10.75
2022-11-18T01:10:56.557Z,10.43
2022-11-18T01:14:06.543Z,10.75
2022-11-18T01:17:12.036Z,10.30
2022-11-18T01:20:19.296Z,11.57
2022-11-18T01:23:25.404Z,10.40
2022-11-18T01:26:31.793Z,10.10
2022-11-18T01:29:32.434Z,9.65
2022-11-18T01:32:38.164Z,9.70
2022-11-18T01:35:45.092Z,10.18
2022-11-18T01:38:51.886Z,9.55
2022-11-18T01:41:57.928Z,9.60
2022-11-18T01:45:31.828Z,10.23
2022-11-18T01:48:49.457Z,9.50
2022-11-18T01:52:03.976Z,9.28
2022-11-18T01:55:07.844Z,10.75
2022-11-18T01:58:23.593Z,11.05
2022-11-18T02:01:29.299Z,9.68
2022-11-18T02:04:35.341Z,10.88
2022-11-18T02:07:42.042Z,10.20
2022-11-18T02:10:48.726Z,10.13
2022-11-18T02:13:55.521Z,10.35
2022-11-18T02:17:23.791Z,9.90
2022-11-18T02:20:47.452Z,9.68
2022-11-18T02:24:21.443Z,9.30
2022-11-18T02:27:48.705Z,11.03
2022-11-18T02:31:00.505Z,10.53
2022-11-18T02:34:16.442Z,10.00
2022-11-18T02:37:42.269Z,10.90
2022-11-18T02:40:51.638Z,9.60
2022-11-18T02:44:06.267Z,10.25
2022-11-18T02:47:15.725Z,10.00
2022-11-18T02:50:27.434Z,10.65
2022-11-18T02:53:35.240Z,10.05
2022-11-18T02:56:40.805Z,10.48
2022-11-18T02:59:48.244Z,9.73
2022-11-18T03:03:04.039Z,9.55
2022-11-18T03:06:46.494Z,10.85
2022-11-18T03:09:56.153Z,10.43
2022-11-18T03:13:20.144Z,10.85
2022-11-18T03:16:31.632Z,10.88
2022-11-18T03:19:54.728Z,10.35
2022-11-18T03:23:24.503Z,10.38
2022-11-18T03:26:38.497Z,9.00
2022-11-18T03:29:50.551Z,9.63
2022-11-18T03:32:58.512Z,9.08
2022-11-18T03:36:04.398Z,10.05
2022-11-18T03:39:14.741Z,9.28
2022-11-18T03:42:40.810Z,10.50
2022-11-18T03:46:02.725Z,10.60
2022-11-18T03:49:11.281Z,10.45
2022-11-18T03:52:31.172Z,10.50
2022-11-18T03:55:41.456Z,10.25
2022-11-18T03:58:55.092Z,10.18
2022-11-18T04:02:18.448Z,10.68
2022-11-18T04:05:25.945Z,9.58
2022-11-18T04:08:38.274Z,11.10
2022-11-18T04:12:08.588Z,11.15
2022-11-18T04:15:15.732Z,9.50
2022-11-18T04:18:22.292Z,10.40
2022-11-18T04:21:28.953Z,10.65
2022-11-18T04:24:35.429Z,12.10
2022-11-18T04:27:40.558Z,11.12
2022-11-18T04:30:46.095Z,11.25
2022-11-18T04:33:51.459Z,11.85
2022-11-18T04:36:57.664Z,20.00
2022-11-18T04:40:04.410Z,17.82
2022-11-18T04:43:10.958Z,13.88
2022-11-18T04:46:16.458Z,11.73
2022-11-18T04:49:25.303Z,11.78
2022-11-18T04:52:30.733Z,11.48
2022-11-18T04:55:36.448Z,11.15
2022-11-18T04:58:43.745Z,11.63
2022-11-18T05:01:49.823Z,12.53
2022-11-18T05:04:55.002Z,12.85
2022-11-18T05:08:01.283Z,11.50
2022-11-18T05:11:26.684Z,12.80
2022-11-18T05:14:34.827Z,12.95
2022-11-18T05:17:41.438Z,12.78
2022-11-18T05:20:50.512Z,12.47
2022-11-18T05:23:56.258Z,15.25
2022-11-18T05:27:02.850Z,13.70
2022-11-18T05:30:09.307Z,14.10
2022-11-18T05:33:16.282Z,16.07
2022-11-18T05:36:23.991Z,16.30
2022-11-18T05:39:30.396Z,14.13
2022-11-18T05:42:55.125Z,16.90
2022-11-18T05:46:01.845Z,14.95
2022-11-18T05:49:08.668Z,16.67
2022-11-18T05:52:15.513Z,15.35
2022-11-18T05:55:21.252Z,16.42
2022-11-18T05:58:27.793Z,15.25
2022-11-18T06:01:39.357Z,18.52
2022-11-18T06:05:04.319Z,15.85
2022-11-18T06:08:10.618Z,15.45
2022-11-18T06:11:15.732Z,14.45
2022-11-18T06:14:41.602Z,14.73
2022-11-18T06:18:00.035Z,15.13
2022-11-18T06:21:09.119Z,14.60
2022-11-18T06:24:16.575Z,15.15
2022-11-18T06:27:23.758Z,14.13
2022-11-18T06:30:30.031Z,15.83
2022-11-18T06:33:38.096Z,15.63
2022-11-18T06:36:44.360Z,15.25
2022-11-18T06:39:52.616Z,15.43
2022-11-18T06:43:16.583Z,15.25
2022-11-18T06:46:44.235Z,16.60
2022-11-18T06:49:51.194Z,17.52
2022-11-18T06:52:58.993Z,14.20
2022-11-18T06:56:05.231Z,14.20
2022-11-18T06:59:10.889Z,14.98
2022-11-18T07:02:17.991Z,15.15
2022-11-18T07:05:24.384Z,13.58
2022-11-18T07:08:35.581Z,14.60
2022-11-18T07:11:41.271Z,15.10
2022-11-18T07:14:47.999Z,12.78
2022-11-18T07:17:57.177Z,13.50
2022-11-18T07:21:04.352Z,12.35
2022-11-18T07:24:11.496Z,12.73
2022-11-18T07:27:17.601Z,12.07
2022-11-18T07:30:24.755Z,10.98
2022-11-18T07:33:31.281Z,11.00
2022-11-18T07:36:41.909Z,13.22
2022-11-18T07:39:48.688Z,13.28
2022-11-18T07:42:55.185Z,13.32
2022-11-18T07:46:00.763Z,10.70
2022-11-18T07:49:08.354Z,11.45
2022-11-18T07:52:25.060Z,11.97
2022-11-18T07:55:33.868Z,11.00
2022-11-18T07:58:40.543Z,11.18
2022-11-18T08:01:47.184Z,11.03
2022-11-18T08:04:55.540Z,9.30
2022-11-18T08:08:03.935Z,10.30
2022-11-18T08:11:18.981Z,9.60
2022-11-18T08:14:22.483Z,10.25
2022-11-18T08:17:30.526Z,10.85
2022-11-18T08:20:35.833Z,8.85
2022-11-18T08:23:42.243Z,11.08
2022-11-18T08:26:51.946Z,10.15
2022-11-18T08:29:58.663Z,9.45
2022-11-18T08:33:07.182Z,10.25
2022-11-18T08:36:25.486Z,9.53
2022-11-18T08:39:32.816Z,9.25
2022-11-18T08:42:40.148Z,8.75
2022-11-18T08:45:46.704Z,8.88
2022-11-18T08:48:53.042Z,7.87
2022-11-18T08:51:59.790Z,10.55
2022-11-18T08:55:08.136Z,11.00
2022-11-18T08:58:16.427Z,10.55
2022-11-18T09:01:25.400Z,9.08
2022-11-18T09:04:41.941Z,9.63
2022-11-18T09:07:48.529Z,8.50
2022-11-18T09:10:55.284Z,9.30
2022-11-18T09:17:22.858Z,9.05
2022-11-18T09:20:31.869Z,8.13
2022-11-18T09:23:39.818Z,8.60
2022-11-18T09:26:46.107Z,7.92
2022-11-18T09:29:52.794Z,9.53
2022-11-18T09:32:59.454Z,8.83
2022-11-18T09:36:09.398Z,9.48
2022-11-18T09:39:16.467Z,8.65
2022-11-18T09:42:30.128Z,9.83
2022-11-18T09:45:49.095Z,9.68
2022-11-18T09:49:12.945Z,9.30
2022-11-18T09:52:34.273Z,8.38
2022-11-18T09:55:37.154Z,8.50
2022-11-18T09:58:50.038Z,9.28
2022-11-18T10:01:56.037Z,9.08
2022-11-18T10:05:01.935Z,9.30
2022-11-18T10:08:41.146Z,10.20
2022-11-18T10:12:06.419Z,11.68
2022-11-18T10:15:30.191Z,9.93
2022-11-18T10:19:01.176Z,10.03
2022-11-18T10:22:23.809Z,11.30
2022-11-18T10:25:30.343Z,10.65
2022-11-18T10:28:43.296Z,9.10
2022-11-18T10:31:50.340Z,9.20
2022-11-18T10:35:05.598Z,15.50
2022-11-18T10:38:19.738Z,9.73
2022-11-18T10:41:30.627Z,10.35
2022-11-18T10:44:55.799Z,9.18
2022-11-18T10:48:13.749Z,9.25
2022-11-18T10:51:23.315Z,9.68
2022-11-18T10:54:39.305Z,9.43
2022-11-18T10:57:45.491Z,9.25
2022-11-18T11:01:02.808Z,8.70
2022-11-18T11:04:37.896Z,9.25
2022-11-18T11:07:52.287Z,8.80
2022-11-18T11:10:58.724Z,9.03
2022-11-18T11:14:04.768Z,9.85
2022-11-18T11:17:29.213Z,8.18
2022-11-18T11:20:38.532Z,10.25
2022-11-18T11:23:45.526Z,8.65
2022-11-18T11:30:31.100Z,8.50
2022-11-18T11:33:53.443Z,8.60
2022-11-18T11:37:38.471Z,7.70
2022-11-18T11:40:51.686Z,8.78
2022-11-18T11:44:20.457Z,8.93
2022-11-18T11:47:57.235Z,8.45
2022-11-18T11:51:12.957Z,9.33
2022-11-18T11:54:52.715Z,9.13
2022-11-18T11:58:40.854Z,8.60
2022-11-18T12:02:14.535Z,8.98
2022-11-18T12:05:46.521Z,8.33
2022-11-18T12:09:15.255Z,8.75
2022-11-18T12:12:57.524Z,9.38
2022-11-18T12:16:44.317Z,10.38
2022-11-18T12:19:52.658Z,10.68
2022-11-18T12:23:27.552Z,10.63
2022-11-18T12:26:51.947Z,11.22
2022-11-18T12:30:07.377Z,11.53
2022-11-18T12:33:14.088Z,12.35
2022-11-18T12:36:21.022Z,10.35
2022-11-18T12:39:46.633Z,10.48
2022-11-18T12:43:12.899Z,11.00
2022-11-18T12:46:17.244Z,10.38
2022-11-18T12:49:43.767Z,10.70
2022-11-18T12:52:56.355Z,10.78
2022-11-18T12:56:04.985Z,10.50
2022-11-18T12:59:12.517Z,10.30
2022-11-18T13:02:33.516Z,10.03
2022-11-18T13:05:45.815Z,11.60
2022-11-18T13:08:52.806Z,12.45
2022-11-18T13:12:11.470Z,11.75
2022-11-18T13:15:39.221Z,9.98
2022-11-18T13:18:45.025Z,10.40
2022-11-18T13:22:11.680Z,10.95
2022-11-18T13:25:17.664Z,11.03
2022-11-18T13:28:54.851Z,10.65
2022-11-18T13:32:38.055Z,11.73
2022-11-18T13:35:44.160Z,11.33
2022-11-18T13:38:51.298Z,16.15
2022-11-18T13:41:57.364Z,22.37
2022-11-18T13:45:15.450Z,19.65
2022-11-18T13:48:23.945Z,13.90
2022-11-18T13:51:31.157Z,13.05
2022-11-18T13:54:39.981Z,17.52
2022-11-18T13:57:46.578Z,17.82
2022-11-18T14:00:51.844Z,15.10
2022-11-18T14:04:09.264Z,14.28
2022-11-18T14:07:40.542Z,13.90
2022-11-18T14:10:54.330Z,13.38
2022-11-18T14:14:06.391Z,14.70
2022-11-18T14:17:38.360Z,15.10
2022-11-18T14:20:44.526Z,15.25
2022-11-18T14:23:50.830Z,14.55
2022-11-18T14:26:59.855Z,16.02
2022-11-18T14:30:07.490Z,12.25
2022-11-18T14:33:36.353Z,13.55
2022-11-18T14:36:42.193Z,13.68
2022-11-18T14:39:49.017Z,12.10
2022-11-18T14:42:56.720Z,14.28
2022-11-18T14:46:03.399Z,14.28
2022-11-18T14:49:09.803Z,14.68
2022-11-18T14:52:18.040Z,12.78
2022-11-18T14:55:25.885Z,13.22
2022-11-18T14:58:31.080Z,13.03
2022-11-18T15:01:36.453Z,15.83
2022-11-18T15:04:42.735Z,16.42
2022-11-18T15:07:48.193Z,17.52
2022-11-18T15:10:54.070Z,15.75
2022-11-18T15:13:59.331Z,15.50
2022-11-18T15:17:05.238Z,14.68
2022-11-18T15:20:12.895Z,15.70
2022-11-18T15:23:19.608Z,20.25
2022-11-18T15:26:45.795Z,21.30
2022-11-18T15:29:52.055Z,21.02
2022-11-18T15:32:58.218Z,17.62
2022-11-18T15:36:04.742Z,15.65
2022-11-18T15:39:11.706Z,16.25
2022-11-18T15:42:23.170Z,14.63
2022-11-18T15:45:29.658Z,14.47
2022-11-18T15:48:34.823Z,14.47
2022-11-18T15:51:42.096Z,15.30
2022-11-18T15:54:47.379Z,15.13
2022-11-18T15:57:53.657Z,16.23
2022-11-18T16:01:02.211Z,16.70
2022-11-18T16:04:07.205Z,21.60
2022-11-18T16:07:13.001Z,19.85
2022-11-18T16:10:36.440Z,16.50
2022-11-18T16:13:43.369Z,16.20
2022-11-18T16:16:50.227Z,18.73
2022-11-18T16:19:56.706Z,20.65
2022-11-18T16:23:02.708Z,19.00
2022-11-18T16:26:08.607Z,17.70
2022-11-18T16:29:14.531Z,17.10
2022-11-18T16:32:23.400Z,17.27
2022-11-18T16:35:30.018Z,16.00
2022-11-18T16:38:38.198Z,18.50
2022-11-18T16:41:44.676Z,17.77
2022-11-18T16:44:51.654Z,18.35
2022-11-18T16:47:59.910Z,31.10
2022-11-18T16:51:18.762Z,26.12
2022-11-18T16:54:29.968Z,21.20
2022-11-18T16:57:37.946Z,19.12
2022-11-18T17:01:16.611Z,17.40
2022-11-18T17:03:50.242Z,15.88
2022-11-18T17:06:56.408Z,14.33
2022-11-18T17:10:03.759Z,14.50
2022-11-18T17:13:09.084Z,14.50
2022-11-18T17:16:23.037Z,13.85
2022-11-18T17:19:31.541Z,12.43
2022-11-18T17:22:39.465Z,12.70
2022-11-18T17:25:46.758Z,11.85
2022-11-18T17:28:53.643Z,11.73
2022-11-18T17:32:02.586Z,11.25
2022-11-18T17:35:10.144Z,11.65
2022-11-18T17:38:18.331Z,12.30
2022-11-18T17:41:44.978Z,13.00
2022-11-18T17:44:50.726Z,11.40
2022-11-18T17:48:00.419Z,12.18
2022-11-18T17:51:06.697Z,12.23
2022-11-18T17:54:13.579Z,12.43
2022-11-18T17:57:19.480Z,12.15
2022-11-18T18:00:27.262Z,12.55
2022-11-18T18:03:34.239Z,12.10
2022-11-18T18:06:40.920Z,13.20
2022-11-18T18:09:46.712Z,12.75
2022-11-18T18:13:11.527Z,13.05
2022-11-18T18:16:18.454Z,13.72
2022-11-18T18:19:25.473Z,13.35
2022-11-18T18:22:31.168Z,12.63
2022-11-18T18:25:36.148Z,12.13
2022-11-18T18:28:42.001Z,12.45
2022-11-18T18:31:51.394Z,12.47
2022-11-18T18:34:58.137Z,12.63
2022-11-18T18:38:05.140Z,12.47
2022-11-18T18:41:18.431Z,12.07
2022-11-18T18:44:25.332Z,12.23
2022-11-18T18:47:31.208Z,12.03
2022-11-18T18:50:37.984Z,12.68
2022-11-18T18:53:44.330Z,12.47
2022-11-18T18:56:48.890Z,12.37
2022-11-18T18:59:55.196Z,12.40
2022-11-18T19:03:01.961Z,12.53
2022-11-18T19:09:18.493Z,13.45
2022-11-18T19:12:43.899Z,13.80
2022-11-18T19:15:50.832Z,12.85
2022-11-18T19:18:59.093Z,12.75
2022-11-18T19:22:05.784Z,14.13
2022-11-18T19:25:12.858Z,12.63
2022-11-18T19:28:19.609Z,14.10
2022-11-18T19:31:30.206Z,13.95
2022-11-18T19:34:36.705Z,14.55
2022-11-18T19:37:41.847Z,13.85
2022-11-18T19:40:47.713Z,13.58
2022-11-18T19:43:54.663Z,13.13
2022-11-18T19:47:01.704Z,14.47
2022-11-18T19:50:08.645Z,13.90
2022-11-18T19:53:16.226Z,14.40
2022-11-18T19:56:28.379Z,14.10
2022-11-18T19:59:32.976Z,13.72
2022-11-18T20:02:37.923Z,14.93
2022-11-18T20:06:01.192Z,14.50
2022-11-18T20:09:06.832Z,16.27
2022-11-18T20:12:14.705Z,14.87
2022-11-18T20:15:21.634Z,15.78
2022-11-18T20:18:30.497Z,16.45
2022-11-18T20:21:39.899Z,16.90
2022-11-18T20:24:47.095Z,16.05
2022-11-18T20:27:52.145Z,16.52
2022-11-18T20:31:02.450Z,16.52
2022-11-18T20:34:09.826Z,14.30
2022-11-18T20:37:18.846Z,16.05
2022-11-18T20:40:26.547Z,15.63
2022-11-18T20:43:34.880Z,16.02
2022-11-18T20:46:42.868Z,16.48
2022-11-18T20:49:49.939Z,17.27
2022-11-18T20:52:55.309Z,17.45
2022-11-18T20:56:04.125Z,17.73
2022-11-18T20:59:11.912Z,18.30
2022-11-18T21:02:18.462Z,18.67
2022-11-18T21:05:26.455Z,17.77
2022-11-18T21:08:34.789Z,19.55
2022-11-18T21:11:41.720Z,18.20
2022-11-18T21:14:49.182Z,18.90
2022-11-18T21:17:55.405Z,17.75
2022-11-18T21:21:20.018Z,16.52
2022-11-18T21:24:30.211Z,17.07
2022-11-18T21:27:36.192Z,17.90
2022-11-18T21:30:43.277Z,17.75
2022-11-18T21:33:50.321Z,18.77
2022-11-18T21:36:57.995Z,18.30
2022-11-18T21:40:06.508Z,16.82
2022-11-18T21:43:13.439Z,18.70
2022-11-18T21:46:25.172Z,19.07
2022-11-18T21:49:31.827Z,19.17
2022-11-18T21:52:38.242Z,18.62
2022-11-18T21:55:43.528Z,19.32
2022-11-18T21:58:50.308Z,18.87
2022-11-18T22:01:57.003Z,19.35
2022-11-18T22:05:04.439Z,20.43
2022-11-18T22:08:10.485Z,20.05
2022-11-18T22:11:19.040Z,19.70
2022-11-18T22:14:26.424Z,19.20
2022-11-18T22:17:35.575Z,19.27
2022-11-18T22:20:43.306Z,19.67
2022-11-18T22:23:49.216Z,18.60
2022-11-18T22:26:54.607Z,20.72
2022-11-18T22:30:00.179Z,20.43
2022-11-18T22:33:06.567Z,21.10
2022-11-18T22:36:19.978Z,19.27
2022-11-18T22:39:27.441Z,20.08
2022-11-18T22:42:51.309Z,20.57
2022-11-18T22:45:56.952Z,19.77
2022-11-18T22:49:04.547Z,18.98
2022-11-18T22:52:12.929Z,19.48
2022-11-18T22:55:20.177Z,20.62
2022-11-18T22:58:26.464Z,21.00
2022-11-18T23:01:34.680Z,20.77
2022-11-18T23:04:41.747Z,19.45
2022-11-18T23:07:47.129Z,18.85
2022-11-18T23:10:53.100Z,19.73
2022-11-18T23:14:05.267Z,20.02
2022-11-18T23:17:11.582Z,19.15
2022-11-18T23:20:20.317Z,20.32
2022-11-18T23:23:26.562Z,18.20
2022-11-18T23:26:32.607Z,19.82
2022-11-18T23:29:39.130Z,18.50
2022-11-18T23:32:46.567Z,19.80
2022-11-18T23:35:53.400Z,17.12
2022-11-18T23:39:01.695Z,20.10
2022-11-18T23:42:09.570Z,18.23
2022-11-18T23:45:16.692Z,20.45
2022-11-18T23:48:22.087Z,19.27
2022-11-18T23:51:33.362Z,19.52
2022-11-18T23:54:40.892Z,18.92
2022-11-18T23:57:46.291Z,20.77
